sensor_id;sensor_type;location;lat;lon;timestamp;P1;durP1;ratioP1;P2;durP2;ratioP2
54384;SDS011;40284;52.878;5.998;2022-12-07T00:01:10;11.45;;;2.33;;
54384;SDS011;40284;52.878;5.998;2022-12-07T00:03:37;8.60;;;3.22;;
54384;SDS011;40284;52.878;5.998;2022-12-07T00:06:04;9.98;;;2.15;;
54384;SDS011;40284;52.878;5.998;2022-12-07T00:08:31;11.13;;;2.00;;
54384;SDS011;40284;52.878;5.998;2022-12-07T00:11:01;12.45;;;2.17;;
54384;SDS011;40284;52.878;5.998;2022-12-07T00:13:28;10.02;;;2.50;;
54384;SDS011;40284;52.878;5.998;2022-12-07T00:15:54;7.22;;;2.03;;
54384;SDS011;40284;52.878;5.998;2022-12-07T00:18:20;10.65;;;2.00;;
54384;SDS011;40284;52.878;5.998;2022-12-07T00:20:46;9.30;;;2.45;;
54384;SDS011;40284;52.878;5.998;2022-12-07T00:23:12;14.00;;;2.38;;
54384;SDS011;40284;52.878;5.998;2022-12-07T00:25:38;8.57;;;2.20;;
54384;SDS011;40284;52.878;5.998;2022-12-07T00:28:04;4.90;;;1.80;;
54384;SDS011;40284;52.878;5.998;2022-12-07T00:30:31;8.55;;;1.92;;
54384;SDS011;40284;52.878;5.998;2022-12-07T00:32:57;11.30;;;2.65;;
54384;SDS011;40284;52.878;5.998;2022-12-07T00:35:23;9.23;;;2.00;;
54384;SDS011;40284;52.878;5.998;2022-12-07T00:37:49;13.73;;;2.70;;
54384;SDS011;40284;52.878;5.998;2022-12-07T00:40:16;6.97;;;1.80;;
54384;SDS011;40284;52.878;5.998;2022-12-07T00:42:42;9.75;;;2.03;;
54384;SDS011;40284;52.878;5.998;2022-12-07T00:45:08;9.00;;;1.88;;
54384;SDS011;40284;52.878;5.998;2022-12-07T00:47:34;10.68;;;2.40;;
54384;SDS011;40284;52.878;5.998;2022-12-07T00:50:00;18.30;;;4.35;;
54384;SDS011;40284;52.878;5.998;2022-12-07T00:52:26;13.45;;;4.25;;
54384;SDS011;40284;52.878;5.998;2022-12-07T00:54:52;19.13;;;4.72;;
54384;SDS011;40284;52.878;5.998;2022-12-07T00:57:18;13.57;;;4.50;;
54384;SDS011;40284;52.878;5.998;2022-12-07T00:59:44;14.55;;;5.00;;
54384;SDS011;40284;52.878;5.998;2022-12-07T01:02:10;21.63;;;5.80;;
54384;SDS011;40284;52.878;5.998;2022-12-07T01:04:36;19.17;;;6.20;;
54384;SDS011;40284;52.878;5.998;2022-12-07T01:07:02;18.13;;;6.85;;
54384;SDS011;40284;52.878;5.998;2022-12-07T01:09:28;15.85;;;4.85;;
54384;SDS011;40284;52.878;5.998;2022-12-07T01:11:54;16.30;;;5.30;;
54384;SDS011;40284;52.878;5.998;2022-12-07T01:14:20;19.08;;;4.20;;
54384;SDS011;40284;52.878;5.998;2022-12-07T01:16:46;15.45;;;2.80;;
54384;SDS011;40284;52.878;5.998;2022-12-07T01:19:13;10.25;;;1.90;;
54384;SDS011;40284;52.878;5.998;2022-12-07T01:21:39;16.38;;;2.67;;
54384;SDS011;40284;52.878;5.998;2022-12-07T01:24:06;8.38;;;1.95;;
54384;SDS011;40284;52.878;5.998;2022-12-07T01:26:32;8.75;;;1.83;;
54384;SDS011;40284;52.878;5.998;2022-12-07T01:28:58;13.68;;;2.00;;
54384;SDS011;40284;52.878;5.998;2022-12-07T01:31:26;6.57;;;1.85;;
54384;SDS011;40284;52.878;5.998;2022-12-07T01:33:56;9.82;;;1.88;;
54384;SDS011;40284;52.878;5.998;2022-12-07T01:36:26;9.95;;;2.15;;
54384;SDS011;40284;52.878;5.998;2022-12-07T01:38:57;10.23;;;2.22;;
54384;SDS011;40284;52.878;5.998;2022-12-07T01:41:24;11.07;;;2.13;;
54384;SDS011;40284;52.878;5.998;2022-12-07T01:46:35;10.65;;;2.88;;
54384;SDS011;40284;52.878;5.998;2022-12-07T01:49:01;14.10;;;1.63;;
54384;SDS011;40284;52.878;5.998;2022-12-07T01:51:28;16.77;;;1.98;;
54384;SDS011;40284;52.878;5.998;2022-12-07T01:53:55;7.53;;;1.67;;
54384;SDS011;40284;52.878;5.998;2022-12-07T01:56:23;11.18;;;1.40;;
54384;SDS011;40284;52.878;5.998;2022-12-07T01:58:50;5.32;;;1.30;;
54384;SDS011;40284;52.878;5.998;2022-12-07T02:01:16;11.52;;;1.70;;
54384;SDS011;40284;52.878;5.998;2022-12-07T02:03:43;7.22;;;1.80;;
54384;SDS011;40284;52.878;5.998;2022-12-07T02:06:11;9.70;;;1.58;;
54384;SDS011;40284;52.878;5.998;2022-12-07T02:08:38;6.22;;;1.40;;
54384;SDS011;40284;52.878;5.998;2022-12-07T02:11:04;9.70;;;1.75;;
54384;SDS011;40284;52.878;5.998;2022-12-07T02:13:32;9.85;;;1.55;;
54384;SDS011;40284;52.878;5.998;2022-12-07T02:16:09;9.48;;;1.58;;
54384;SDS011;40284;52.878;5.998;2022-12-07T02:21:13;13.13;;;2.33;;
54384;SDS011;40284;52.878;5.998;2022-12-07T02:32:08;12.32;;;2.85;;
54384;SDS011;40284;52.878;5.998;2022-12-07T02:34:47;13.93;;;3.35;;
54384;SDS011;40284;52.878;5.998;2022-12-07T02:37:19;12.98;;;6.00;;
54384;SDS011;40284;52.878;5.998;2022-12-07T02:39:51;13.32;;;3.38;;
54384;SDS011;40284;52.878;5.998;2022-12-07T02:42:26;13.18;;;4.10;;
54384;SDS011;40284;52.878;5.998;2022-12-07T02:44:54;11.30;;;1.88;;
54384;SDS011;40284;52.878;5.998;2022-12-07T02:47:20;14.45;;;2.40;;
54384;SDS011;40284;52.878;5.998;2022-12-07T02:49:47;10.05;;;1.83;;
54384;SDS011;40284;52.878;5.998;2022-12-07T02:52:13;12.40;;;2.03;;
54384;SDS011;40284;52.878;5.998;2022-12-07T02:54:39;8.43;;;1.70;;
54384;SDS011;40284;52.878;5.998;2022-12-07T02:59:55;7.28;;;1.73;;
54384;SDS011;40284;52.878;5.998;2022-12-07T03:10:21;12.15;;;1.85;;
54384;SDS011;40284;52.878;5.998;2022-12-07T03:15:34;7.25;;;1.45;;
54384;SDS011;40284;52.878;5.998;2022-12-07T03:18:01;5.60;;;1.65;;
54384;SDS011;40284;52.878;5.998;2022-12-07T03:20:28;7.35;;;2.47;;
54384;SDS011;40284;52.878;5.998;2022-12-07T03:22:55;7.25;;;1.40;;
54384;SDS011;40284;52.878;5.998;2022-12-07T03:25:22;7.93;;;1.20;;
54384;SDS011;40284;52.878;5.998;2022-12-07T03:27:53;9.02;;;1.35;;
54384;SDS011;40284;52.878;5.998;2022-12-07T03:30:35;6.67;;;1.33;;
54384;SDS011;40284;52.878;5.998;2022-12-07T03:33:10;9.52;;;2.00;;
54384;SDS011;40284;52.878;5.998;2022-12-07T03:35:40;8.73;;;2.30;;
54384;SDS011;40284;52.878;5.998;2022-12-07T03:38:13;9.75;;;2.05;;
54384;SDS011;40284;52.878;5.998;2022-12-07T03:40:50;9.23;;;3.03;;
54384;SDS011;40284;52.878;5.998;2022-12-07T03:43:18;11.88;;;3.10;;
54384;SDS011;40284;52.878;5.998;2022-12-07T03:45:50;10.70;;;1.70;;
54384;SDS011;40284;52.878;5.998;2022-12-07T03:48:20;10.95;;;2.72;;
54384;SDS011;40284;52.878;5.998;2022-12-07T03:50:50;14.57;;;2.05;;
54384;SDS011;40284;52.878;5.998;2022-12-07T03:53:19;8.25;;;1.40;;
54384;SDS011;40284;52.878;5.998;2022-12-07T03:55:48;11.73;;;1.30;;
54384;SDS011;40284;52.878;5.998;2022-12-07T03:58:15;7.30;;;2.35;;
54384;SDS011;40284;52.878;5.998;2022-12-07T04:00:42;10.05;;;1.88;;
54384;SDS011;40284;52.878;5.998;2022-12-07T04:03:08;4.13;;;1.48;;
54384;SDS011;40284;52.878;5.998;2022-12-07T04:05:35;4.68;;;0.90;;
54384;SDS011;40284;52.878;5.998;2022-12-07T04:08:01;4.93;;;1.17;;
54384;SDS011;40284;52.878;5.998;2022-12-07T04:10:27;7.82;;;1.30;;
54384;SDS011;40284;52.878;5.998;2022-12-07T04:12:53;10.25;;;1.30;;
54384;SDS011;40284;52.878;5.998;2022-12-07T04:15:19;7.32;;;1.50;;
54384;SDS011;40284;52.878;5.998;2022-12-07T04:17:45;12.05;;;2.22;;
54384;SDS011;40284;52.878;5.998;2022-12-07T04:20:11;7.55;;;2.00;;
54384;SDS011;40284;52.878;5.998;2022-12-07T04:22:38;8.68;;;1.70;;
54384;SDS011;40284;52.878;5.998;2022-12-07T04:25:04;7.57;;;1.10;;
54384;SDS011;40284;52.878;5.998;2022-12-07T04:27:30;11.68;;;1.65;;
54384;SDS011;40284;52.878;5.998;2022-12-07T04:29:56;12.80;;;2.88;;
54384;SDS011;40284;52.878;5.998;2022-12-07T04:32:22;8.88;;;1.73;;
54384;SDS011;40284;52.878;5.998;2022-12-07T04:34:49;9.65;;;1.58;;
54384;SDS011;40284;52.878;5.998;2022-12-07T04:37:15;7.07;;;1.73;;
54384;SDS011;40284;52.878;5.998;2022-12-07T04:39:42;8.73;;;2.03;;
54384;SDS011;40284;52.878;5.998;2022-12-07T04:42:09;14.77;;;2.00;;
54384;SDS011;40284;52.878;5.998;2022-12-07T04:44:36;8.77;;;1.90;;
54384;SDS011;40284;52.878;5.998;2022-12-07T04:47:02;9.32;;;1.58;;
54384;SDS011;40284;52.878;5.998;2022-12-07T04:49:28;16.80;;;2.97;;
54384;SDS011;40284;52.878;5.998;2022-12-07T04:51:54;4.65;;;1.42;;
54384;SDS011;40284;52.878;5.998;2022-12-07T04:54:20;5.78;;;1.45;;
54384;SDS011;40284;52.878;5.998;2022-12-07T04:56:46;9.63;;;1.88;;
54384;SDS011;40284;52.878;5.998;2022-12-07T04:59:13;4.10;;;1.77;;
54384;SDS011;40284;52.878;5.998;2022-12-07T05:01:39;28.08;;;5.25;;
54384;SDS011;40284;52.878;5.998;2022-12-07T05:04:05;13.10;;;2.55;;
54384;SDS011;40284;52.878;5.998;2022-12-07T05:06:32;8.38;;;2.83;;
54384;SDS011;40284;52.878;5.998;2022-12-07T05:08:58;6.05;;;2.00;;
54384;SDS011;40284;52.878;5.998;2022-12-07T05:11:24;11.32;;;1.77;;
54384;SDS011;40284;52.878;5.998;2022-12-07T05:14:07;10.85;;;1.70;;
54384;SDS011;40284;52.878;5.998;2022-12-07T05:16:33;9.90;;;1.95;;
54384;SDS011;40284;52.878;5.998;2022-12-07T05:18:59;10.85;;;2.45;;
54384;SDS011;40284;52.878;5.998;2022-12-07T05:21:25;9.30;;;2.47;;
54384;SDS011;40284;52.878;5.998;2022-12-07T05:23:51;10.98;;;3.05;;
54384;SDS011;40284;52.878;5.998;2022-12-07T05:26:17;10.13;;;3.08;;
54384;SDS011;40284;52.878;5.998;2022-12-07T05:28:44;8.77;;;3.05;;
54384;SDS011;40284;52.878;5.998;2022-12-07T05:31:10;11.10;;;2.08;;
54384;SDS011;40284;52.878;5.998;2022-12-07T05:33:36;10.77;;;2.85;;
54384;SDS011;40284;52.878;5.998;2022-12-07T05:36:02;12.15;;;2.47;;
54384;SDS011;40284;52.878;5.998;2022-12-07T05:38:31;11.32;;;3.05;;
54384;SDS011;40284;52.878;5.998;2022-12-07T05:41:01;12.98;;;2.55;;
54384;SDS011;40284;52.878;5.998;2022-12-07T05:43:27;8.25;;;1.58;;
54384;SDS011;40284;52.878;5.998;2022-12-07T05:45:54;8.40;;;1.70;;
54384;SDS011;40284;52.878;5.998;2022-12-07T05:48:20;9.85;;;1.55;;
54384;SDS011;40284;52.878;5.998;2022-12-07T05:50:49;7.85;;;2.00;;
54384;SDS011;40284;52.878;5.998;2022-12-07T05:53:16;6.95;;;1.25;;
54384;SDS011;40284;52.878;5.998;2022-12-07T05:55:42;5.15;;;2.10;;
54384;SDS011;40284;52.878;5.998;2022-12-07T05:58:08;9.88;;;2.25;;
54384;SDS011;40284;52.878;5.998;2022-12-07T06:00:56;10.15;;;1.70;;
54384;SDS011;40284;52.878;5.998;2022-12-07T06:03:22;12.50;;;4.85;;
54384;SDS011;40284;52.878;5.998;2022-12-07T06:05:48;7.95;;;3.00;;
54384;SDS011;40284;52.878;5.998;2022-12-07T06:08:14;11.25;;;4.55;;
54384;SDS011;40284;52.878;5.998;2022-12-07T06:10:41;14.00;;;4.32;;
54384;SDS011;40284;52.878;5.998;2022-12-07T06:13:07;12.13;;;4.43;;
54384;SDS011;40284;52.878;5.998;2022-12-07T06:15:36;8.85;;;4.45;;
54384;SDS011;40284;52.878;5.998;2022-12-07T06:18:03;15.75;;;7.05;;
54384;SDS011;40284;52.878;5.998;2022-12-07T06:20:29;14.13;;;6.13;;
54384;SDS011;40284;52.878;5.998;2022-12-07T06:22:55;9.23;;;3.85;;
54384;SDS011;40284;52.878;5.998;2022-12-07T06:25:21;8.05;;;3.33;;
54384;SDS011;40284;52.878;5.998;2022-12-07T06:27:47;9.43;;;2.60;;
54384;SDS011;40284;52.878;5.998;2022-12-07T06:30:13;11.93;;;2.13;;
54384;SDS011;40284;52.878;5.998;2022-12-07T06:32:39;5.40;;;1.52;;
54384;SDS011;40284;52.878;5.998;2022-12-07T06:35:05;9.30;;;1.40;;
54384;SDS011;40284;52.878;5.998;2022-12-07T06:37:31;6.00;;;2.15;;
54384;SDS011;40284;52.878;5.998;2022-12-07T06:39:57;6.85;;;2.05;;
54384;SDS011;40284;52.878;5.998;2022-12-07T06:42:23;11.98;;;1.50;;
54384;SDS011;40284;52.878;5.998;2022-12-07T06:44:49;6.78;;;1.50;;
54384;SDS011;40284;52.878;5.998;2022-12-07T06:47:15;7.30;;;1.90;;
54384;SDS011;40284;52.878;5.998;2022-12-07T06:49:41;5.38;;;1.48;;
54384;SDS011;40284;52.878;5.998;2022-12-07T06:52:08;8.75;;;2.42;;
54384;SDS011;40284;52.878;5.998;2022-12-07T06:54:34;4.32;;;2.00;;
54384;SDS011;40284;52.878;5.998;2022-12-07T06:57:00;5.30;;;1.67;;
54384;SDS011;40284;52.878;5.998;2022-12-07T06:59:26;7.70;;;2.50;;
54384;SDS011;40284;52.878;5.998;2022-12-07T07:01:52;10.90;;;2.95;;
54384;SDS011;40284;52.878;5.998;2022-12-07T07:04:18;9.32;;;2.47;;
54384;SDS011;40284;52.878;5.998;2022-12-07T07:06:44;3.58;;;1.73;;
54384;SDS011;40284;52.878;5.998;2022-12-07T07:09:11;5.40;;;2.15;;
54384;SDS011;40284;52.878;5.998;2022-12-07T07:11:37;8.13;;;1.92;;
54384;SDS011;40284;52.878;5.998;2022-12-07T07:14:03;7.13;;;1.75;;
54384;SDS011;40284;52.878;5.998;2022-12-07T07:16:29;6.20;;;1.65;;
54384;SDS011;40284;52.878;5.998;2022-12-07T07:18:56;6.25;;;1.90;;
54384;SDS011;40284;52.878;5.998;2022-12-07T07:21:22;9.95;;;1.95;;
54384;SDS011;40284;52.878;5.998;2022-12-07T07:23:48;6.68;;;1.95;;
54384;SDS011;40284;52.878;5.998;2022-12-07T07:26:14;4.88;;;2.00;;
54384;SDS011;40284;52.878;5.998;2022-12-07T07:28:40;14.10;;;2.33;;
54384;SDS011;40284;52.878;5.998;2022-12-07T07:31:06;11.23;;;1.95;;
54384;SDS011;40284;52.878;5.998;2022-12-07T07:33:32;9.88;;;2.45;;
54384;SDS011;40284;52.878;5.998;2022-12-07T07:35:58;6.82;;;2.22;;
54384;SDS011;40284;52.878;5.998;2022-12-07T07:38:25;10.20;;;2.35;;
54384;SDS011;40284;52.878;5.998;2022-12-07T07:40:51;11.60;;;2.72;;
54384;SDS011;40284;52.878;5.998;2022-12-07T07:43:17;17.02;;;8.80;;
54384;SDS011;40284;52.878;5.998;2022-12-07T07:45:43;16.02;;;3.35;;
54384;SDS011;40284;52.878;5.998;2022-12-07T07:48:09;8.48;;;3.10;;
54384;SDS011;40284;52.878;5.998;2022-12-07T07:50:35;7.00;;;2.17;;
54384;SDS011;40284;52.878;5.998;2022-12-07T07:53:01;13.45;;;3.03;;
54384;SDS011;40284;52.878;5.998;2022-12-07T07:55:27;9.75;;;2.53;;
54384;SDS011;40284;52.878;5.998;2022-12-07T07:57:54;10.73;;;2.22;;
54384;SDS011;40284;52.878;5.998;2022-12-07T08:00:20;9.10;;;1.98;;
54384;SDS011;40284;52.878;5.998;2022-12-07T08:02:46;11.10;;;2.58;;
54384;SDS011;40284;52.878;5.998;2022-12-07T08:05:12;6.80;;;2.70;;
54384;SDS011;40284;52.878;5.998;2022-12-07T08:07:39;11.48;;;2.30;;
54384;SDS011;40284;52.878;5.998;2022-12-07T08:10:05;6.03;;;2.28;;
54384;SDS011;40284;52.878;5.998;2022-12-07T08:12:35;7.32;;;1.92;;
54384;SDS011;40284;52.878;5.998;2022-12-07T08:15:01;6.95;;;1.95;;
54384;SDS011;40284;52.878;5.998;2022-12-07T08:17:27;14.88;;;2.50;;
54384;SDS011;40284;52.878;5.998;2022-12-07T08:19:53;6.57;;;1.77;;
54384;SDS011;40284;52.878;5.998;2022-12-07T08:22:19;13.60;;;2.20;;
54384;SDS011;40284;52.878;5.998;2022-12-07T08:24:45;8.38;;;2.08;;
54384;SDS011;40284;52.878;5.998;2022-12-07T08:27:11;7.68;;;2.00;;
54384;SDS011;40284;52.878;5.998;2022-12-07T08:29:37;9.00;;;2.45;;
54384;SDS011;40284;52.878;5.998;2022-12-07T08:32:03;9.25;;;2.08;;
54384;SDS011;40284;52.878;5.998;2022-12-07T08:34:29;11.23;;;2.67;;
54384;SDS011;40284;52.878;5.998;2022-12-07T08:36:55;14.13;;;2.92;;
54384;SDS011;40284;52.878;5.998;2022-12-07T08:39:21;8.55;;;2.53;;
54384;SDS011;40284;52.878;5.998;2022-12-07T08:41:47;11.25;;;2.65;;
54384;SDS011;40284;52.878;5.998;2022-12-07T08:44:14;11.65;;;2.83;;
54384;SDS011;40284;52.878;5.998;2022-12-07T08:46:41;11.40;;;3.83;;
54384;SDS011;40284;52.878;5.998;2022-12-07T08:51:36;9.95;;;2.08;;
54384;SDS011;40284;52.878;5.998;2022-12-07T08:54:03;5.63;;;1.77;;
54384;SDS011;40284;52.878;5.998;2022-12-07T08:56:30;8.15;;;1.95;;
54384;SDS011;40284;52.878;5.998;2022-12-07T08:58:57;7.35;;;1.75;;
54384;SDS011;40284;52.878;5.998;2022-12-07T09:01:23;7.70;;;3.33;;
54384;SDS011;40284;52.878;5.998;2022-12-07T09:03:49;10.55;;;2.42;;
54384;SDS011;40284;52.878;5.998;2022-12-07T09:06:15;8.88;;;2.83;;
54384;SDS011;40284;52.878;5.998;2022-12-07T09:08:42;4.65;;;1.50;;
54384;SDS011;40284;52.878;5.998;2022-12-07T09:11:09;7.03;;;1.92;;
54384;SDS011;40284;52.878;5.998;2022-12-07T09:13:35;13.50;;;3.47;;
54384;SDS011;40284;52.878;5.998;2022-12-07T09:16:01;9.65;;;2.50;;
54384;SDS011;40284;52.878;5.998;2022-12-07T09:18:27;12.20;;;2.35;;
54384;SDS011;40284;52.878;5.998;2022-12-07T09:20:53;11.23;;;2.17;;
54384;SDS011;40284;52.878;5.998;2022-12-07T09:23:19;7.72;;;2.33;;
54384;SDS011;40284;52.878;5.998;2022-12-07T09:25:45;15.98;;;4.15;;
54384;SDS011;40284;52.878;5.998;2022-12-07T09:28:11;13.73;;;4.40;;
54384;SDS011;40284;52.878;5.998;2022-12-07T09:30:37;6.45;;;1.98;;
54384;SDS011;40284;52.878;5.998;2022-12-07T09:33:03;12.88;;;2.20;;
54384;SDS011;40284;52.878;5.998;2022-12-07T09:35:30;8.63;;;2.53;;
54384;SDS011;40284;52.878;5.998;2022-12-07T09:37:56;8.52;;;2.35;;
54384;SDS011;40284;52.878;5.998;2022-12-07T09:40:22;10.02;;;3.15;;
54384;SDS011;40284;52.878;5.998;2022-12-07T09:42:52;10.13;;;2.03;;
54384;SDS011;40284;52.878;5.998;2022-12-07T09:45:24;7.10;;;2.28;;
54384;SDS011;40284;52.878;5.998;2022-12-07T09:47:50;11.27;;;2.72;;
54384;SDS011;40284;52.878;5.998;2022-12-07T09:50:23;9.13;;;2.17;;
54384;SDS011;40284;52.878;5.998;2022-12-07T09:55:19;12.77;;;3.38;;
54384;SDS011;40284;52.878;5.998;2022-12-07T09:57:48;6.32;;;1.85;;
54384;SDS011;40284;52.878;5.998;2022-12-07T10:00:17;11.43;;;3.30;;
54384;SDS011;40284;52.878;5.998;2022-12-07T10:02:46;9.95;;;2.22;;
54384;SDS011;40284;52.878;5.998;2022-12-07T10:05:18;7.07;;;1.77;;
54384;SDS011;40284;52.878;5.998;2022-12-07T10:07:46;9.15;;;1.95;;
54384;SDS011;40284;52.878;5.998;2022-12-07T10:10:14;13.25;;;2.08;;
54384;SDS011;40284;52.878;5.998;2022-12-07T10:12:57;12.23;;;2.38;;
54384;SDS011;40284;52.878;5.998;2022-12-07T10:15:37;6.60;;;2.53;;
54384;SDS011;40284;52.878;5.998;2022-12-07T10:18:13;9.10;;;2.47;;
54384;SDS011;40284;52.878;5.998;2022-12-07T10:20:42;7.40;;;1.88;;
54384;SDS011;40284;52.878;5.998;2022-12-07T10:23:13;12.63;;;2.10;;
54384;SDS011;40284;52.878;5.998;2022-12-07T10:25:40;9.85;;;1.73;;
54384;SDS011;40284;52.878;5.998;2022-12-07T10:30:45;9.98;;;2.10;;
54384;SDS011;40284;52.878;5.998;2022-12-07T10:33:30;9.10;;;2.63;;
54384;SDS011;40284;52.878;5.998;2022-12-07T10:35:57;13.02;;;2.05;;
54384;SDS011;40284;52.878;5.998;2022-12-07T10:38:25;9.55;;;2.72;;
54384;SDS011;40284;52.878;5.998;2022-12-07T10:41:05;7.90;;;2.80;;
54384;SDS011;40284;52.878;5.998;2022-12-07T10:43:31;7.32;;;2.75;;
54384;SDS011;40284;52.878;5.998;2022-12-07T10:46:17;12.23;;;2.58;;
54384;SDS011;40284;52.878;5.998;2022-12-07T11:01:46;10.60;;;2.17;;
54384;SDS011;40284;52.878;5.998;2022-12-07T11:06:54;12.85;;;2.85;;
54384;SDS011;40284;52.878;5.998;2022-12-07T11:14:23;11.18;;;2.00;;
54384;SDS011;40284;52.878;5.998;2022-12-07T11:19:39;9.00;;;2.47;;
54384;SDS011;40284;52.878;5.998;2022-12-07T11:30:36;12.05;;;4.32;;
54384;SDS011;40284;52.878;5.998;2022-12-07T11:33:20;10.93;;;3.15;;
54384;SDS011;40284;52.878;5.998;2022-12-07T11:38:41;12.48;;;3.20;;
54384;SDS011;40284;52.878;5.998;2022-12-07T11:41:08;6.07;;;2.35;;
54384;SDS011;40284;52.878;5.998;2022-12-07T11:43:37;8.30;;;2.38;;
54384;SDS011;40284;52.878;5.998;2022-12-07T11:46:10;19.73;;;5.85;;
54384;SDS011;40284;52.878;5.998;2022-12-07T11:51:10;11.48;;;3.33;;
54384;SDS011;40284;52.878;5.998;2022-12-07T11:53:56;10.13;;;3.13;;
54384;SDS011;40284;52.878;5.998;2022-12-07T11:56:25;11.18;;;3.65;;
54384;SDS011;40284;52.878;5.998;2022-12-07T11:59:04;9.00;;;2.60;;
54384;SDS011;40284;52.878;5.998;2022-12-07T12:06:36;6.60;;;2.22;;
54384;SDS011;40284;52.878;5.998;2022-12-07T12:11:51;10.45;;;1.73;;
54384;SDS011;40284;52.878;5.998;2022-12-07T12:19:42;4.50;;;1.60;;
54384;SDS011;40284;52.878;5.998;2022-12-07T12:24:37;8.48;;;1.60;;
54384;SDS011;40284;52.878;5.998;2022-12-07T12:27:06;12.27;;;3.03;;
54384;SDS011;40284;52.878;5.998;2022-12-07T12:29:35;9.98;;;1.70;;
54384;SDS011;40284;52.878;5.998;2022-12-07T12:34:51;8.68;;;2.00;;
54384;SDS011;40284;52.878;5.998;2022-12-07T12:42:49;4.63;;;1.38;;
54384;SDS011;40284;52.878;5.998;2022-12-07T12:45:20;7.03;;;1.60;;
54384;SDS011;40284;52.878;5.998;2022-12-07T12:50:26;6.60;;;1.20;;
54384;SDS011;40284;52.878;5.998;2022-12-07T12:52:57;10.60;;;2.00;;
54384;SDS011;40284;52.878;5.998;2022-12-07T13:00:47;10.02;;;1.65;;
54384;SDS011;40284;52.878;5.998;2022-12-07T13:03:26;9.25;;;1.65;;
54384;SDS011;40284;52.878;5.998;2022-12-07T13:08:39;6.53;;;1.80;;
54384;SDS011;40284;52.878;5.998;2022-12-07T13:16:46;9.02;;;1.52;;
54384;SDS011;40284;52.878;5.998;2022-12-07T13:21:57;5.32;;;1.48;;
54384;SDS011;40284;52.878;5.998;2022-12-07T13:24:23;7.43;;;1.58;;
54384;SDS011;40284;52.878;5.998;2022-12-07T13:26:51;8.65;;;1.60;;
54384;SDS011;40284;52.878;5.998;2022-12-07T13:29:21;7.03;;;1.60;;
54384;SDS011;40284;52.878;5.998;2022-12-07T13:31:55;8.98;;;2.65;;
54384;SDS011;40284;52.878;5.998;2022-12-07T13:34:43;7.88;;;2.25;;
54384;SDS011;40284;52.878;5.998;2022-12-07T13:37:10;8.05;;;1.95;;
54384;SDS011;40284;52.878;5.998;2022-12-07T13:39:51;9.60;;;1.70;;
54384;SDS011;40284;52.878;5.998;2022-12-07T13:42:30;4.50;;;2.25;;
54384;SDS011;40284;52.878;5.998;2022-12-07T13:44:57;9.73;;;2.40;;
54384;SDS011;40284;52.878;5.998;2022-12-07T13:47:39;4.45;;;1.65;;
54384;SDS011;40284;52.878;5.998;2022-12-07T13:50:26;6.05;;;3.08;;
54384;SDS011;40284;52.878;5.998;2022-12-07T13:52:56;5.95;;;1.42;;
54384;SDS011;40284;52.878;5.998;2022-12-07T13:55:23;6.72;;;1.42;;
54384;SDS011;40284;52.878;5.998;2022-12-07T13:57:50;5.22;;;1.70;;
54384;SDS011;40284;52.878;5.998;2022-12-07T14:00:17;9.38;;;1.90;;
54384;SDS011;40284;52.878;5.998;2022-12-07T14:02:54;3.42;;;1.25;;
54384;SDS011;40284;52.878;5.998;2022-12-07T14:05:28;4.63;;;1.67;;
54384;SDS011;40284;52.878;5.998;2022-12-07T14:07:56;7.72;;;1.75;;
54384;SDS011;40284;52.878;5.998;2022-12-07T14:11:05;5.10;;;1.30;;
54384;SDS011;40284;52.878;5.998;2022-12-07T14:13:29;6.55;;;1.27;;
54384;SDS011;40284;52.878;5.998;2022-12-07T14:15:56;8.30;;;1.98;;
54384;SDS011;40284;52.878;5.998;2022-12-07T14:21:02;6.93;;;1.55;;
54384;SDS011;40284;52.878;5.998;2022-12-07T14:23:28;9.73;;;1.35;;
54384;SDS011;40284;52.878;5.998;2022-12-07T14:26:03;4.60;;;1.38;;
54384;SDS011;40284;52.878;5.998;2022-12-07T14:28:31;6.72;;;1.38;;
54384;SDS011;40284;52.878;5.998;2022-12-07T14:30:58;5.57;;;1.30;;
54384;SDS011;40284;52.878;5.998;2022-12-07T14:33:24;5.72;;;1.63;;
54384;SDS011;40284;52.878;5.998;2022-12-07T14:35:51;7.70;;;2.33;;
54384;SDS011;40284;52.878;5.998;2022-12-07T14:38:23;7.97;;;3.78;;
54384;SDS011;40284;52.878;5.998;2022-12-07T14:40:50;5.80;;;1.75;;
54384;SDS011;40284;52.878;5.998;2022-12-07T14:43:17;5.22;;;2.08;;
54384;SDS011;40284;52.878;5.998;2022-12-07T14:45:44;8.00;;;2.08;;
54384;SDS011;40284;52.878;5.998;2022-12-07T14:48:11;9.30;;;1.20;;
54384;SDS011;40284;52.878;5.998;2022-12-07T14:50:38;3.63;;;1.60;;
54384;SDS011;40284;52.878;5.998;2022-12-07T14:53:26;4.78;;;1.50;;
54384;SDS011;40284;52.878;5.998;2022-12-07T14:55:53;8.98;;;3.50;;
54384;SDS011;40284;52.878;5.998;2022-12-07T14:58:19;5.22;;;1.70;;
54384;SDS011;40284;52.878;5.998;2022-12-07T15:00:45;4.25;;;1.85;;
54384;SDS011;40284;52.878;5.998;2022-12-07T15:03:12;5.47;;;2.90;;
54384;SDS011;40284;52.878;5.998;2022-12-07T15:05:39;12.65;;;3.83;;
54384;SDS011;40284;52.878;5.998;2022-12-07T15:08:06;6.78;;;2.47;;
54384;SDS011;40284;52.878;5.998;2022-12-07T15:10:32;9.70;;;3.55;;
54384;SDS011;40284;52.878;5.998;2022-12-07T15:12:59;7.22;;;3.13;;
54384;SDS011;40284;52.878;5.998;2022-12-07T15:15:45;9.63;;;5.25;;
54384;SDS011;40284;52.878;5.998;2022-12-07T15:18:11;8.25;;;5.10;;
54384;SDS011;40284;52.878;5.998;2022-12-07T15:20:37;5.45;;;2.70;;
54384;SDS011;40284;52.878;5.998;2022-12-07T15:23:04;5.85;;;1.90;;
54384;SDS011;40284;52.878;5.998;2022-12-07T15:25:30;5.03;;;2.30;;
54384;SDS011;40284;52.878;5.998;2022-12-07T15:27:56;4.57;;;1.73;;
54384;SDS011;40284;52.878;5.998;2022-12-07T15:30:22;4.88;;;2.25;;
54384;SDS011;40284;52.878;5.998;2022-12-07T15:32:51;7.95;;;2.53;;
54384;SDS011;40284;52.878;5.998;2022-12-07T15:35:18;5.28;;;2.58;;
54384;SDS011;40284;52.878;5.998;2022-12-07T15:37:44;6.55;;;2.33;;
54384;SDS011;40284;52.878;5.998;2022-12-07T15:40:10;3.92;;;1.88;;
54384;SDS011;40284;52.878;5.998;2022-12-07T15:42:36;7.28;;;2.00;;
54384;SDS011;40284;52.878;5.998;2022-12-07T15:45:03;9.02;;;3.17;;
54384;SDS011;40284;52.878;5.998;2022-12-07T15:47:30;4.43;;;2.35;;
54384;SDS011;40284;52.878;5.998;2022-12-07T15:49:57;5.65;;;2.38;;
54384;SDS011;40284;52.878;5.998;2022-12-07T15:52:23;6.25;;;2.38;;
54384;SDS011;40284;52.878;5.998;2022-12-07T15:54:49;3.13;;;1.58;;
54384;SDS011;40284;52.878;5.998;2022-12-07T15:57:15;5.18;;;1.65;;
54384;SDS011;40284;52.878;5.998;2022-12-07T15:59:41;3.40;;;1.70;;
54384;SDS011;40284;52.878;5.998;2022-12-07T16:02:08;5.80;;;1.52;;
54384;SDS011;40284;52.878;5.998;2022-12-07T16:04:35;8.73;;;2.85;;
54384;SDS011;40284;52.878;5.998;2022-12-07T16:07:01;5.32;;;1.85;;
54384;SDS011;40284;52.878;5.998;2022-12-07T16:09:27;10.13;;;2.10;;
54384;SDS011;40284;52.878;5.998;2022-12-07T16:11:53;7.20;;;2.60;;
54384;SDS011;40284;52.878;5.998;2022-12-07T16:14:20;7.90;;;2.25;;
54384;SDS011;40284;52.878;5.998;2022-12-07T16:16:46;5.45;;;1.83;;
54384;SDS011;40284;52.878;5.998;2022-12-07T16:19:12;7.93;;;1.73;;
54384;SDS011;40284;52.878;5.998;2022-12-07T16:21:38;5.10;;;1.17;;
54384;SDS011;40284;52.878;5.998;2022-12-07T16:24:05;5.50;;;1.38;;
54384;SDS011;40284;52.878;5.998;2022-12-07T16:26:31;10.77;;;4.90;;
54384;SDS011;40284;52.878;5.998;2022-12-07T16:28:57;15.07;;;7.68;;
54384;SDS011;40284;52.878;5.998;2022-12-07T16:31:24;13.07;;;6.95;;
54384;SDS011;40284;52.878;5.998;2022-12-07T16:33:54;9.10;;;6.30;;
54384;SDS011;40284;52.878;5.998;2022-12-07T16:36:21;17.90;;;11.63;;
54384;SDS011;40284;52.878;5.998;2022-12-07T16:38:49;15.13;;;9.18;;
54384;SDS011;40284;52.878;5.998;2022-12-07T16:41:15;9.10;;;5.93;;
54384;SDS011;40284;52.878;5.998;2022-12-07T16:43:41;6.50;;;3.45;;
54384;SDS011;40284;52.878;5.998;2022-12-07T16:46:07;6.30;;;3.10;;